Time;durP1;ratioP1;P1;durP2;ratioP2;P2;SDS_P1;SDS_P2;PMS_P1;PMS_P2;Temp;Humidity;BMP_temperature;BMP_pressure;BME280_temperature;BME280_humidity;BME280_pressure;Samples;Min_cycle;Max_cycle;Signal;HPM_P1;HPM_P2
2022/01/19 00:00:46;;;;;;;11.00;4.47;;;4.70;99.90;4.50;102288.00;;;;4996166;27;88685;-68
2022/01/19 00:03:11;;;;;;;9.03;4.10;;;4.80;99.90;4.50;102286.00;;;;4995204;27;104506;-69
2022/01/19 00:05:38;;;;;;;7.60;4.70;;;4.80;99.90;4.50;102283.00;;;;4997320;27;98811;-69
2022/01/19 00:08:04;;;;;;;9.03;4.67;;;4.70;99.90;4.60;102274.00;;;;4997746;27;94448;-69
2022/01/19 00:10:30;;;;;;;10.13;3.93;;;4.70;99.90;4.50;102282.00;;;;4995493;28;102752;-68
2022/01/19 00:12:58;;;;;;;7.20;3.93;;;4.70;99.90;4.60;102273.00;;;;4977664;28;88054;-67
2022/01/19 00:15:26;;;;;;;6.53;4.43;;;4.70;99.90;4.50;102265.00;;;;4995656;27;88731;-68
2022/01/19 00:17:55;;;;;;;8.43;4.93;;;4.70;99.90;4.60;102265.00;;;;4977496;28;87998;-67
2022/01/19 00:20:22;;;;;;;10.97;5.23;;;4.70;99.90;4.60;102253.00;;;;4996472;28;88241;-69
2022/01/19 00:22:49;;;;;;;6.67;4.57;;;4.70;99.90;4.60;102259.00;;;;4997109;27;97342;-70
2022/01/19 00:25:14;;;;;;;6.03;4.30;;;4.70;99.90;4.50;102250.00;;;;4996021;28;87942;-70
2022/01/19 00:27:40;;;;;;;10.27;5.13;;;4.70;99.90;4.60;102253.00;;;;4987095;28;107887;-69
2022/01/19 00:30:07;;;;;;;5.63;3.90;;;4.70;99.90;4.60;102240.00;;;;5003474;27;88219;-69
2022/01/19 00:32:34;;;;;;;9.87;4.17;;;4.70;99.90;4.60;102234.00;;;;4997689;27;88081;-71
2022/01/19 00:35:00;;;;;;;8.50;4.40;;;4.70;99.90;4.60;102240.00;;;;4998732;27;87720;-68
2022/01/19 00:37:26;;;;;;;9.23;4.53;;;4.70;99.90;4.60;102244.00;;;;4995034;28;93261;-70
2022/01/19 00:39:52;;;;;;;8.67;5.30;;;4.70;99.90;4.60;102236.00;;;;5000604;27;88764;-69
2022/01/19 00:42:19;;;;;;;8.83;4.47;;;4.80;99.90;4.60;102217.00;;;;5015453;27;109212;-69
2022/01/19 00:44:46;;;;;;;10.33;4.73;;;4.70;99.90;4.60;102218.00;;;;5013420;27;93586;-70
2022/01/19 00:47:12;;;;;;;8.70;4.63;;;4.70;99.90;4.60;102220.00;;;;5015725;27;87708;-70
2022/01/19 00:49:38;;;;;;;9.10;4.73;;;4.80;99.90;4.60;102219.00;;;;5015307;27;94142;-69
2022/01/19 00:52:05;;;;;;;5.87;4.63;;;4.70;99.90;4.60;102217.00;;;;5009112;27;89993;-69
2022/01/19 00:54:31;;;;;;;7.77;5.30;;;4.80;99.90;4.60;102225.00;;;;5013896;27;94042;-69
2022/01/19 00:56:56;;;;;;;8.63;4.60;;;4.80;99.90;4.60;102216.00;;;;5015422;27;110138;-69
2022/01/19 00:59:22;;;;;;;6.57;4.13;;;4.80;99.90;4.60;102210.00;;;;5014778;27;118105;-70
2022/01/19 01:01:48;;;;;;;6.53;3.97;;;4.80;99.90;4.60;102226.00;;;;5011431;27;117620;-70
2022/01/19 01:04:14;;;;;;;9.27;5.23;;;4.80;99.90;4.60;102217.00;;;;5012022;27;103752;-70
2022/01/19 01:06:40;;;;;;;8.83;4.90;;;4.80;99.90;4.60;102213.00;;;;5015508;27;87747;-70
2022/01/19 01:09:06;;;;;;;7.43;4.70;;;4.70;99.90;4.60;102205.00;;;;5014892;27;89438;-69
2022/01/19 01:11:36;;;;;;;8.13;4.40;;;4.80;99.90;4.50;102203.00;;;;5014134;27;88443;-70
2022/01/19 01:18:57;;;;;;;6.47;4.47;;;4.80;99.90;4.50;102191.00;;;;4993827;28;87860;-70
2022/01/19 01:21:22;;;;;;;7.03;5.30;;;4.70;99.90;4.50;102191.00;;;;4995096;28;103926;-69
2022/01/19 01:23:48;;;;;;;9.10;5.50;;;4.70;99.90;4.50;102179.00;;;;4994327;28;91780;-70
2022/01/19 01:26:14;;;;;;;6.63;4.43;;;4.70;99.90;4.50;102175.00;;;;4995622;27;108295;-69
2022/01/19 01:28:39;;;;;;;9.63;5.27;;;4.70;99.90;4.50;102176.00;;;;4993334;28;93902;-70
2022/01/19 01:31:07;;;;;;;5.93;4.60;;;4.60;99.90;4.50;102170.00;;;;4975309;28;119163;-70
2022/01/19 01:33:33;;;;;;;10.47;5.20;;;4.70;99.90;4.50;102166.00;;;;4994348;28;87802;-69
2022/01/19 01:35:59;;;;;;;7.10;3.97;;;4.70;99.90;4.50;102160.00;;;;4993903;28;109554;-69
2022/01/19 01:38:25;;;;;;;11.13;5.93;;;4.70;99.90;4.50;102160.00;;;;4994291;27;110998;-69
2022/01/19 01:40:51;;;;;;;8.73;4.80;;;4.60;99.90;4.50;102153.00;;;;4994816;28;97480;-69
2022/01/19 01:43:17;;;;;;;8.13;5.03;;;4.70;99.90;4.50;102144.00;;;;4993642;27;109180;-69
2022/01/19 01:45:45;;;;;;;9.07;5.20;;;4.70;99.90;4.50;102121.00;;;;5002933;27;87008;-69
2022/01/19 01:48:17;;;;;;;5.87;3.93;;;4.70;99.90;4.40;102126.00;;;;5014126;27;87998;-69
2022/01/19 01:53:31;;;;;;;7.77;4.83;;;4.70;99.90;4.40;102093.00;;;;4992775;28;88865;-69
2022/01/19 01:56:09;;;;;;;7.13;4.13;;;4.60;99.90;4.30;102093.00;;;;4995527;28;87632;-69
2022/01/19 01:58:39;;;;;;;10.97;5.30;;;4.60;99.90;4.30;102096.00;;;;4997862;27;88049;-69
2022/01/19 02:01:07;;;;;;;13.93;5.20;;;4.60;99.90;4.30;102113.00;;;;5014283;27;87984;-69
2022/01/19 02:03:39;;;;;;;7.70;4.97;;;4.50;99.90;4.30;102110.00;;;;5009297;27;99267;-69
2022/01/19 02:06:29;;;;;;;10.67;5.70;;;4.50;99.90;4.30;102121.00;;;;5007880;27;87828;-69
2022/01/19 02:09:03;;;;;;;8.00;5.27;;;4.50;99.90;4.30;102132.00;;;;4998410;27;87849;-69
2022/01/19 02:23:22;;;;;;;8.83;6.00;;;4.50;99.90;4.30;102092.00;;;;4995540;28;89978;-68
2022/01/19 02:25:57;;;;;;;8.17;5.27;;;4.60;99.90;4.30;102086.00;;;;4998594;27;87790;-68
2022/01/19 02:40:07;;;;;;;8.07;5.63;;;4.60;99.90;4.40;102054.00;;;;5000235;27;87960;-68
2022/01/19 02:40:11;;;;;;;9.40;6.20;;;4.60;99.90;4.40;102050.00;;;;5018858;27;87493;-68
2022/01/19 02:42:52;;;;;;;14.53;6.73;;;4.50;99.90;4.40;102042.00;;;;5005280;27;88000;-68
2022/01/19 02:50:33;;;;;;;9.83;5.67;;;4.60;99.90;4.30;102038.00;;;;4995494;27;87769;-68
2022/01/19 02:52:59;;;;;;;10.67;5.63;;;3.90;99.90;4.40;102027.00;;;;4996879;27;116184;-69
2022/01/19 02:55:25;;;;;;;9.30;5.67;;;4.60;99.90;4.30;102023.00;;;;4977717;28;116345;-68
2022/01/19 02:57:51;;;;;;;11.37;5.60;;;4.60;99.90;4.30;102016.00;;;;4997564;28;87999;-69
2022/01/19 03:08:47;;;;;;;15.00;5.87;;;4.50;99.90;4.20;101992.00;;;;5015918;27;87781;-68
2022/01/19 03:11:19;;;;;;;8.43;5.60;;;4.50;99.90;4.10;101988.00;;;;5017907;27;87772;-69
2022/01/19 03:13:47;;;;;;;9.50;6.20;;;4.30;99.90;4.00;101982.00;;;;5013428;27;89214;-69
2022/01/19 03:16:14;;;;;;;9.50;5.60;;;4.30;99.90;4.00;101966.00;;;;4996828;27;88964;-69
2022/01/19 03:18:40;;;;;;;8.93;6.00;;;4.20;99.90;3.90;101974.00;;;;4998431;27;87768;-69
2022/01/19 03:21:06;;;;;;;11.60;6.07;;;4.10;99.90;3.80;101956.00;;;;4996992;27;102242;-69
2022/01/19 03:23:33;;;;;;;16.73;7.13;;;4.10;99.90;3.70;101947.00;;;;4996007;27;88977;-68
2022/01/19 03:26:01;;;;;;;9.33;6.37;;;3.90;99.90;3.60;101948.00;;;;4997046;27;87970;-68
2022/01/19 03:28:27;;;;;;;11.23;6.03;;;3.60;99.90;3.50;101946.00;;;;4996944;28;88083;-69
2022/01/19 03:30:52;;;;;;;11.47;6.73;;;3.70;99.90;3.40;101935.00;;;;4997144;27;108806;-69
2022/01/19 03:33:18;;;;;;;9.10;6.67;;;3.70;99.90;3.30;101933.00;;;;4995605;28;117739;-69
2022/01/19 03:35:45;;;;;;;10.20;6.57;;;3.60;99.90;3.20;101930.00;;;;4996936;28;88073;-68
2022/01/19 03:38:12;;;;;;;11.37;6.80;;;3.50;99.90;3.10;101924.00;;;;4996831;27;88528;-69
2022/01/19 03:40:38;;;;;;;8.80;5.70;;;3.40;99.90;3.00;101924.00;;;;4996905;28;87725;-69
2022/01/19 03:43:05;;;;;;;9.17;5.57;;;3.20;99.90;2.90;101911.00;;;;4999580;27;103135;-69
2022/01/19 03:45:33;;;;;;;10.87;6.23;;;3.20;99.90;2.80;101923.00;;;;4977993;28;88694;-69
2022/01/19 03:48:18;;;;;;;14.20;5.90;;;3.10;99.90;2.70;101916.00;;;;4996928;27;87968;-69
2022/01/19 03:50:44;;;;;;;15.73;6.47;;;3.40;99.90;2.60;101913.00;;;;4997362;27;87807;-69
2022/01/19 03:53:09;;;;;;;10.23;6.03;;;3.20;99.90;2.50;101920.00;;;;4995239;28;118628;-68
2022/01/19 03:55:35;;;;;;;9.90;5.00;;;2.80;99.90;2.40;101920.00;;;;4996098;28;117295;-68
2022/01/19 03:58:01;;;;;;;8.80;5.43;;;2.70;99.90;2.30;101928.00;;;;4996053;28;104779;-69
2022/01/19 04:00:28;;;;;;;11.97;6.07;;;2.60;99.90;2.30;101917.00;;;;4995811;27;108973;-69
2022/01/19 04:02:53;;;;;;;9.97;5.87;;;2.60;99.90;2.20;101917.00;;;;4995649;28;90080;-69
2022/01/19 04:05:27;;;;;;;10.17;6.50;;;2.50;99.90;2.10;101907.00;;;;4996174;28;89651;-68
2022/01/19 04:07:53;;;;;;;6.03;4.93;;;2.40;99.90;2.00;101910.00;;;;4997183;27;88019;-69
2022/01/19 04:10:19;;;;;;;14.33;5.67;;;2.70;99.90;2.00;101896.00;;;;5001687;27;109840;-69
2022/01/19 04:12:52;;;;;;;9.30;5.23;;;2.30;99.90;1.90;101900.00;;;;5015622;27;89284;-69
2022/01/19 04:15:19;;;;;;;10.53;6.07;;;2.20;99.90;1.90;101906.00;;;;5015822;27;88672;-68
2022/01/19 04:17:53;;;;;;;12.20;6.80;;;2.20;99.90;1.90;101901.00;;;;5016274;27;87832;-69
2022/01/19 04:20:24;;;;;;;12.77;7.63;;;2.20;99.90;2.00;101902.00;;;;5016657;27;86939;-69
2022/01/19 04:22:50;;;;;;;10.27;7.00;;;2.20;99.90;2.00;101903.00;;;;5016003;27;88812;-68
2022/01/19 04:25:15;;;;;;;10.93;6.73;;;2.20;99.90;2.00;101892.00;;;;5015434;27;115801;-69
2022/01/19 04:27:43;;;;;;;11.40;5.87;;;2.30;99.90;2.10;101886.00;;;;5001423;27;88586;-69
2022/01/19 04:30:13;;;;;;;8.83;6.97;;;2.40;99.90;2.20;101878.00;;;;5000465;27;87613;-69
2022/01/19 04:35:27;;;;;;;10.57;6.83;;;2.50;99.90;2.30;101871.00;;;;5015137;27;87928;-69
2022/01/19 04:49:02;;;;;;;12.87;7.17;;;2.50;99.90;2.20;101843.00;;;;4994073;27;88055;-68
2022/01/19 05:05:09;;;;;;;12.27;7.07;;;2.20;99.90;1.80;101797.00;;;;4974773;28;87925;-68
2022/01/19 05:07:43;;;;;;;13.13;7.83;;;2.10;99.90;1.70;101808.00;;;;4996724;27;88601;-69
2022/01/19 05:13:25;;;;;;;11.23;6.23;;;2.00;99.90;1.60;101805.00;;;;4995298;28;87600;-68
2022/01/19 05:15:41;;;;;;;9.60;5.37;;;1.80;99.90;1.40;101799.00;;;;4995184;28;87835;-69
2022/01/19 05:18:08;;;;;;;9.97;6.33;;;1.80;99.90;1.40;101793.00;;;;4995727;27;117745;-69
2022/01/19 05:20:33;;;;;;;9.10;6.43;;;1.70;99.90;1.30;101790.00;;;;5015345;27;88730;-69
2022/01/19 05:22:59;;;;;;;10.63;6.27;;;1.60;99.90;1.20;101780.00;;;;5014214;27;107430;-69
2022/01/19 05:25:25;;;;;;;8.87;6.60;;;1.60;99.90;1.20;101772.00;;;;5014414;27;117192;-69
2022/01/19 05:27:51;;;;;;;14.30;7.70;;;1.50;99.90;1.20;101772.00;;;;4997499;27;94013;-69
2022/01/19 05:30:17;;;;;;;8.77;5.73;;;1.70;99.90;1.20;101760.00;;;;4996195;27;87670;-68
2022/01/19 05:32:47;;;;;;;12.83;7.03;;;1.40;99.90;1.10;101761.00;;;;4995739;27;87966;-69
2022/01/19 05:35:13;;;;;;;17.60;7.80;;;1.40;99.90;1.10;101750.00;;;;5003601;27;97145;-69
2022/01/19 05:37:39;;;;;;;10.40;6.80;;;2.20;99.90;1.00;101745.00;;;;5004351;27;89143;-70
2022/01/19 05:40:09;;;;;;;8.43;6.37;;;1.30;99.90;1.00;101760.00;;;;5010930;27;108215;-69
2022/01/19 05:42:35;;;;;;;10.40;7.60;;;1.30;99.90;0.90;101741.00;;;;5002339;27;87876;-69
2022/01/19 05:45:01;;;;;;;9.93;6.77;;;1.60;99.90;0.90;101745.00;;;;5003747;27;99885;-69
2022/01/19 05:47:27;;;;;;;8.80;6.63;;;2.10;99.90;0.90;101741.00;;;;5010242;27;118515;-69
2022/01/19 05:49:53;;;;;;;10.80;7.43;;;1.10;99.90;0.80;101740.00;;;;5010636;27;87771;-70
2022/01/19 05:52:19;;;;;;;8.40;5.97;;;1.70;99.90;0.80;101735.00;;;;5006182;27;87602;-69
2022/01/19 05:54:46;;;;;;;9.60;6.93;;;1.40;99.90;0.80;101733.00;;;;5010812;27;88122;-69
2022/01/19 05:57:12;;;;;;;9.63;7.07;;;1.10;99.90;0.80;101735.00;;;;5007796;27;88245;-70
2022/01/19 05:59:38;;;;;;;10.80;6.80;;;1.20;99.90;0.80;101733.00;;;;5011402;27;88070;-70
2022/01/19 06:02:04;;;;;;;8.80;6.13;;;1.10;99.90;0.70;101734.00;;;;5001356;27;107923;-69
2022/01/19 06:04:30;;;;;;;10.43;6.53;;;1.10;99.90;0.70;101733.00;;;;4945612;28;115222;-70
2022/01/19 06:06:57;;;;;;;11.57;6.73;;;1.00;99.90;0.60;101732.00;;;;4972706;28;87936;-69
2022/01/19 06:09:37;;;;;;;8.33;5.43;;;1.70;99.90;0.50;101720.00;;;;4993114;27;88878;-69
2022/01/19 06:12:07;;;;;;;16.27;7.80;;;1.30;99.90;0.50;101724.00;;;;4997476;27;87716;-70
2022/01/19 06:14:35;;;;;;;9.23;6.30;;;0.90;99.90;0.40;101711.00;;;;4992475;27;89116;-69
2022/01/19 06:17:03;;;;;;;12.53;6.40;;;1.10;99.90;0.40;101703.00;;;;4994014;27;102983;-69
2022/01/19 06:19:29;;;;;;;11.40;6.77;;;1.10;99.90;0.40;101702.00;;;;4972329;28;87972;-70
2022/01/19 06:21:55;;;;;;;13.97;9.30;;;0.70;99.90;0.30;101692.00;;;;4998881;27;87743;-69
2022/01/19 06:24:21;;;;;;;14.27;9.60;;;1.40;99.90;0.30;101704.00;;;;4992399;28;88368;-70
2022/01/19 06:26:47;;;;;;;13.93;7.73;;;0.60;99.90;0.30;101693.00;;;;4995523;27;91853;-69
2022/01/19 06:29:14;;;;;;;16.60;7.60;;;0.60;99.90;0.20;101698.00;;;;4994177;28;87598;-69
2022/01/19 06:31:40;;;;;;;13.60;7.97;;;1.30;99.90;0.20;101697.00;;;;4997742;27;109171;-69
2022/01/19 06:34:06;;;;;;;11.47;7.63;;;0.60;99.90;0.20;101678.00;;;;4996152;28;98076;-70
2022/01/19 06:36:32;;;;;;;10.60;7.03;;;0.60;99.90;0.20;101689.00;;;;4993796;27;117212;-70
2022/01/19 06:38:58;;;;;;;15.93;7.43;;;2.00;99.90;0.10;101687.00;;;;4993477;27;110499;-69
2022/01/19 06:41:23;;;;;;;14.43;7.70;;;0.50;99.90;0.10;101684.00;;;;4978415;27;87846;-70
2022/01/19 06:43:50;;;;;;;12.17;7.67;;;0.50;99.90;0.10;101670.00;;;;4995803;27;88346;-70
2022/01/19 06:46:16;;;;;;;22.10;8.17;;;0.40;99.90;0.10;101661.00;;;;4974625;27;94840;-70
2022/01/19 06:48:41;;;;;;;13.53;7.03;;;0.80;99.90;0.10;101659.00;;;;4988802;28;87938;-69
2022/01/19 06:51:07;;;;;;;11.93;7.40;;;0.60;99.90;0.00;101662.00;;;;4993307;28;107369;-70
2022/01/19 06:53:33;;;;;;;10.00;7.60;;;0.40;99.90;0.00;101665.00;;;;5010585;27;88793;-70
2022/01/19 06:55:58;;;;;;;11.87;7.60;;;0.30;99.90;0.00;101663.00;;;;4994372;27;117260;-70
2022/01/19 06:58:26;;;;;;;11.53;7.00;;;0.40;99.90;0.00;101663.00;;;;4995687;27;104353;-70
2022/01/19 07:00:51;;;;;;;11.97;6.97;;;1.30;99.90;0.00;101668.00;;;;4998681;27;87785;-70
2022/01/19 07:03:18;;;;;;;12.83;7.53;;;1.10;99.90;-0.10;101663.00;;;;4977652;27;104003;-69
2022/01/19 07:05:44;;;;;;;12.83;8.27;;;1.10;99.90;-0.10;101658.00;;;;4997252;28;87937;-70
2022/01/19 07:08:10;;;;;;;21.60;12.83;;;0.60;99.90;-0.10;101653.00;;;;4978033;28;87870;-70
2022/01/19 07:10:35;;;;;;;17.67;10.50;;;0.30;99.90;-0.10;101648.00;;;;4995788;28;108068;-70
2022/01/19 07:13:03;;;;;;;13.67;9.07;;;0.20;99.90;-0.10;101634.00;;;;4995226;27;117815;-70
2022/01/19 07:15:29;;;;;;;11.40;8.30;;;0.10;99.90;-0.20;101626.00;;;;4988282;27;104018;-70
2022/01/19 07:17:54;;;;;;;13.20;7.70;;;1.10;99.90;-0.20;101625.00;;;;4977906;28;94823;-70
2022/01/19 07:20:20;;;;;;;13.20;8.10;;;0.20;99.90;-0.20;101627.00;;;;4997654;28;87997;-70
2022/01/19 07:22:47;;;;;;;14.83;8.63;;;0.20;99.90;-0.20;101621.00;;;;5009853;27;114016;-70
2022/01/19 07:25:14;;;;;;;14.23;7.47;;;0.10;99.90;-0.20;101612.00;;;;5014889;27;89912;-70
2022/01/19 07:27:40;;;;;;;12.97;7.60;;;0.60;99.90;-0.20;101603.00;;;;5002425;27;87786;-70
2022/01/19 07:30:08;;;;;;;13.77;9.33;;;0.10;99.90;-0.10;101598.00;;;;4996791;28;87764;-70
2022/01/19 07:32:35;;;;;;;22.17;11.07;;;0.20;99.90;-0.10;101587.00;;;;5008863;27;103412;-70
2022/01/19 07:35:06;;;;;;;13.97;10.20;;;0.20;99.90;0.00;101591.00;;;;5001606;27;88789;-70
2022/01/19 07:37:32;;;;;;;17.70;9.60;;;0.30;99.90;0.00;101597.00;;;;5008214;27;87870;-70
2022/01/19 07:39:58;;;;;;;16.63;10.17;;;1.20;99.90;0.20;101580.00;;;;5017103;27;95298;-70
2022/01/19 07:42:26;;;;;;;12.27;9.83;;;1.20;99.90;0.30;101587.00;;;;5014930;27;117587;-70
2022/01/19 07:44:53;;;;;;;14.97;9.87;;;0.60;99.90;0.40;101588.00;;;;5017015;27;88148;-70
2022/01/19 07:47:22;;;;;;;18.17;11.13;;;0.60;99.90;0.50;101564.00;;;;5014023;27;88637;-70
2022/01/19 07:49:48;;;;;;;16.53;10.43;;;0.80;99.90;0.70;101570.00;;;;5010265;27;87786;-70
2022/01/19 07:52:14;;;;;;;15.37;10.80;;;1.30;99.90;0.80;101561.00;;;;4994188;28;118381;-71
2022/01/19 07:54:39;;;;;;;15.00;10.27;;;1.80;99.90;1.00;101553.00;;;;4994097;28;118477;-70
2022/01/19 07:57:05;;;;;;;21.97;11.60;;;2.10;99.90;1.10;101546.00;;;;4996381;27;91648;-70
2022/01/19 07:59:31;;;;;;;16.60;10.07;;;1.30;99.90;1.20;101532.00;;;;4992834;28;96696;-71
2022/01/19 08:01:58;;;;;;;19.17;11.40;;;1.50;99.90;1.40;101538.00;;;;4998083;27;117095;-70
2022/01/19 08:04:24;;;;;;;13.77;9.90;;;2.00;99.90;1.70;101542.00;;;;5015382;27;88765;-70
2022/01/19 08:06:54;;;;;;;15.30;9.43;;;1.80;99.90;1.90;101537.00;;;;5014235;27;112894;-70
2022/01/19 08:09:24;;;;;;;15.17;8.97;;;2.70;99.90;2.20;101528.00;;;;5016531;27;87892;-70
2022/01/19 08:11:49;;;;;;;15.27;9.53;;;2.40;99.90;2.50;101531.00;;;;5015371;27;89225;-70
2022/01/19 08:14:16;;;;;;;18.67;9.50;;;2.60;99.90;2.70;101519.00;;;;4995307;27;117655;-71
2022/01/19 08:16:42;;;;;;;16.43;9.87;;;2.80;99.90;2.90;101515.00;;;;4982829;28;88002;-69
2022/01/19 08:19:08;;;;;;;14.93;9.77;;;3.00;99.90;3.10;101521.00;;;;5010402;27;97854;-69
2022/01/19 08:21:33;;;;;;;13.20;8.37;;;3.30;99.90;3.30;101524.00;;;;5014484;27;103096;-69
2022/01/19 08:23:59;;;;;;;10.70;7.97;;;3.40;99.90;3.60;101516.00;;;;5015115;27;116763;-69
2022/01/19 08:26:25;;;;;;;19.73;9.03;;;3.70;99.90;3.90;101507.00;;;;5014916;27;87863;-69
2022/01/19 08:28:51;;;;;;;11.77;8.30;;;4.00;99.90;4.00;101510.00;;;;5015443;27;94691;-69
2022/01/19 08:31:17;;;;;;;14.00;8.80;;;4.40;99.90;4.20;101509.00;;;;4995987;27;87964;-69
2022/01/19 08:33:42;;;;;;;11.07;7.07;;;4.40;99.90;4.50;101515.00;;;;4995774;27;99398;-68
2022/01/19 08:36:08;;;;;;;12.83;7.90;;;4.60;99.90;4.70;101530.00;;;;4995832;27;111045;-69
2022/01/19 08:38:35;;;;;;;11.97;7.43;;;4.80;99.90;4.90;101510.00;;;;5014370;27;110029;-70
2022/01/19 08:41:00;;;;;;;10.37;6.67;;;5.00;99.90;5.20;101517.00;;;;5015596;27;88814;-69
2022/01/19 08:43:26;;;;;;;10.70;7.90;;;5.30;99.90;5.50;101517.00;;;;5015289;27;88490;-69
2022/01/19 08:45:53;;;;;;;12.33;6.37;;;5.50;99.90;5.70;101504.00;;;;5010576;27;95919;-69
2022/01/19 08:48:19;;;;;;;10.60;6.47;;;5.80;99.90;5.90;101517.00;;;;4987717;28;87848;-70
2022/01/19 08:50:45;;;;;;;11.33;7.53;;;6.00;99.90;6.00;101513.00;;;;4976528;28;90532;-70
2022/01/19 08:53:11;;;;;;;11.27;7.33;;;6.10;99.90;6.20;101509.00;;;;4995029;28;103380;-69
2022/01/19 08:55:37;;;;;;;13.33;8.00;;;6.30;99.90;6.40;101509.00;;;;4994768;28;97155;-70
2022/01/19 08:58:05;;;;;;;11.60;6.57;;;6.50;99.90;6.50;101502.00;;;;4994863;27;93510;-69
2022/01/19 09:00:31;;;;;;;11.73;7.30;;;6.70;99.90;6.60;101508.00;;;;4976255;28;89202;-69
2022/01/19 09:02:58;;;;;;;9.83;6.20;;;6.80;99.90;6.70;101509.00;;;;5002692;27;119661;-70
2022/01/19 09:05:23;;;;;;;12.03;6.20;;;6.90;99.90;6.80;101516.00;;;;5014732;27;111651;-69
2022/01/19 09:07:49;;;;;;;7.20;5.77;;;7.00;99.90;7.00;101510.00;;;;5014963;27;109005;-70
2022/01/19 09:10:15;;;;;;;10.97;6.67;;;7.10;99.90;7.10;101509.00;;;;5015432;27;89017;-69
2022/01/19 09:12:42;;;;;;;10.17;6.77;;;7.10;99.90;7.10;101508.00;;;;5013720;27;88647;-69
2022/01/19 09:15:10;;;;;;;10.13;7.23;;;7.40;99.90;7.20;101513.00;;;;4993020;28;87966;-68
2022/01/19 09:17:37;;;;;;;13.43;7.40;;;7.30;99.90;7.20;101511.00;;;;4994755;27;95817;-69
2022/01/19 09:20:09;;;;;;;12.03;8.23;;;7.30;99.90;7.10;101498.00;;;;4995477;28;87967;-69
2022/01/19 09:22:35;;;;;;;11.37;7.47;;;7.30;99.90;7.00;101484.00;;;;4984451;28;87982;-69
2022/01/19 09:25:03;;;;;;;8.93;6.53;;;7.30;99.90;7.00;101482.00;;;;4993707;28;106896;-70
2022/01/19 09:27:28;;;;;;;10.10;6.93;;;7.20;99.90;7.00;101482.00;;;;4988179;27;88034;-67
2022/01/19 09:29:54;;;;;;;9.73;6.40;;;7.20;99.90;7.00;101484.00;;;;5014140;27;117416;-68
2022/01/19 09:32:20;;;;;;;10.57;7.47;;;7.20;99.90;7.10;101481.00;;;;5013518;27;116672;-68
2022/01/19 09:34:55;;;;;;;16.63;7.47;;;7.20;99.90;7.10;101479.00;;;;5002422;27;110151;-67
2022/01/19 09:37:21;;;;;;;9.70;5.40;;;7.30;99.90;7.20;101473.00;;;;5006142;27;87940;-68
2022/01/19 09:39:46;;;;;;;10.20;5.60;;;7.50;99.90;7.10;101466.00;;;;5014353;27;89175;-68
2022/01/19 09:42:13;;;;;;;6.77;4.60;;;7.40;99.90;7.20;101471.00;;;;5009318;27;91305;-67
2022/01/19 09:44:39;;;;;;;8.07;5.00;;;7.40;99.90;7.30;101461.00;;;;4976095;28;87914;-66
2022/01/19 09:47:06;;;;;;;10.03;5.00;;;7.40;99.90;7.40;101461.00;;;;4996191;27;88028;-68
2022/01/19 09:49:32;;;;;;;5.70;4.20;;;7.50;99.90;7.60;101461.00;;;;4993755;28;89104;-67
2022/01/19 09:51:58;;;;;;;5.90;4.30;;;7.70;99.90;7.50;101463.00;;;;4994526;27;104695;-67
2022/01/19 09:54:27;;;;;;;8.00;4.50;;;7.70;99.90;7.40;101447.00;;;;4994516;28;88169;-68
2022/01/19 09:56:54;;;;;;;7.83;5.27;;;7.70;99.90;7.30;101456.00;;;;4995976;27;89040;-67
2022/01/19 09:59:21;;;;;;;7.00;5.13;;;7.60;99.90;7.20;101465.00;;;;4994198;28;92055;-69
2022/01/19 10:01:57;;;;;;;5.77;4.50;;;7.90;99.90;7.20;101464.00;;;;4995055;28;88202;-69
2022/01/19 10:04:33;;;;;;;8.13;4.50;;;7.40;99.90;7.30;101462.00;;;;5014640;27;87691;-68
2022/01/19 10:07:11;;;;;;;6.43;4.17;;;7.50;99.90;7.40;101450.00;;;;5014250;27;95251;-69
2022/01/19 10:09:53;;;;;;;7.17;5.03;;;7.50;99.90;7.40;101440.00;;;;5013352;27;88064;-68
2022/01/19 10:18:29;;;;;;;7.13;4.87;;;7.60;99.90;7.40;101419.00;;;;4977435;28;88203;-67
2022/01/19 10:21:13;;;;;;;9.80;5.90;;;7.60;99.90;7.30;101408.00;;;;4993894;28;88803;-67
2022/01/19 10:23:50;;;;;;;7.43;5.20;;;7.50;99.90;7.00;101404.00;;;;4995025;27;87975;-67
2022/01/19 10:26:26;;;;;;;9.40;5.90;;;7.20;99.90;6.60;101392.00;;;;5014943;27;88203;-67
2022/01/19 10:29:08;;;;;;;8.37;5.20;;;6.90;99.90;6.20;101390.00;;;;5014255;27;87833;-67
2022/01/19 10:31:38;;;;;;;8.10;5.20;;;6.60;99.90;5.90;101396.00;;;;5000210;27;87845;-67
2022/01/19 10:34:19;;;;;;;7.27;5.33;;;6.20;99.90;5.60;101391.00;;;;5009954;27;88758;-69
2022/01/19 10:36:56;;;;;;;7.57;5.57;;;5.90;99.90;5.30;101384.00;;;;4993185;28;87854;-68
2022/01/19 10:39:25;;;;;;;7.87;5.67;;;5.70;99.90;5.20;101382.00;;;;4981452;27;87856;-68
2022/01/19 10:42:05;;;;;;;7.93;5.17;;;5.50;99.90;5.00;101370.00;;;;5009917;27;98582;-66
2022/01/19 10:44:42;;;;;;;8.80;5.40;;;5.20;99.90;4.90;101366.00;;;;4997254;28;88048;-68
2022/01/19 10:47:10;;;;;;;6.90;4.33;;;5.20;99.90;4.80;101373.00;;;;4986657;27;87770;-68
2022/01/19 10:49:56;;;;;;;7.10;4.90;;;5.00;99.90;4.70;101364.00;;;;5009645;27;88000;-68
2022/01/19 10:52:37;;;;;;;7.43;4.93;;;4.90;99.90;4.60;101355.00;;;;5002855;27;88041;-67
2022/01/19 10:55:13;;;;;;;7.63;5.17;;;4.80;99.90;4.50;101349.00;;;;5011494;27;87712;-69
2022/01/19 10:57:42;;;;;;;11.37;6.63;;;4.70;99.90;4.40;101345.00;;;;4998805;27;87824;-69
2022/01/19 11:00:28;;;;;;;9.97;5.70;;;4.60;99.90;4.40;101330.00;;;;5017839;27;87208;-67
2022/01/19 11:02:59;;;;;;;8.37;5.00;;;4.60;99.90;4.30;101332.00;;;;5016780;27;88790;-68
2022/01/19 11:05:49;;;;;;;9.10;5.70;;;4.50;99.90;4.20;101336.00;;;;5015674;27;88711;-66
2022/01/19 11:08:18;;;;;;;7.27;5.13;;;4.50;99.90;4.10;101322.00;;;;4979179;28;91717;-68
2022/01/19 11:10:49;;;;;;;7.77;5.70;;;4.40;99.90;4.10;101328.00;;;;4991130;28;87962;-67
2022/01/19 11:13:31;;;;;;;8.67;6.60;;;4.30;99.90;4.00;101312.00;;;;4996471;28;88922;-68
2022/01/19 11:16:03;;;;;;;8.40;5.30;;;4.10;99.90;3.90;101308.00;;;;4977972;28;88103;-67
2022/01/19 11:18:30;;;;;;;7.53;5.37;;;4.10;99.90;3.80;101298.00;;;;4995631;28;92031;-68
2022/01/19 11:21:08;;;;;;;7.50;5.20;;;4.30;99.90;3.70;101291.00;;;;4995285;28;87900;-67
2022/01/19 11:24:00;;;;;;;7.20;4.53;;;4.00;99.90;3.60;101302.00;;;;4993527;28;95467;-69
2022/01/19 11:26:31;;;;;;;8.50;4.73;;;4.50;99.90;3.60;101292.00;;;;4967741;28;89146;-67
2022/01/19 11:29:22;;;;;;;6.27;4.57;;;3.80;99.90;3.50;101302.00;;;;4978872;28;88197;-67
2022/01/19 11:31:50;;;;;;;6.97;4.87;;;3.70;99.90;3.50;101297.00;;;;4992001;28;95419;-67
2022/01/19 11:34:43;;;;;;;7.03;4.73;;;3.60;99.90;3.40;101304.00;;;;5000537;27;93388;-67
2022/01/19 11:37:09;;;;;;;7.50;4.90;;;3.70;99.90;3.40;101290.00;;;;5015160;27;89551;-67
2022/01/19 11:39:36;;;;;;;6.83;4.97;;;3.70;99.90;3.50;101291.00;;;;4998045;27;87545;-67
2022/01/19 11:42:04;;;;;;;4.80;4.30;;;3.60;99.90;3.40;101268.00;;;;4997195;27;87701;-68
2022/01/19 11:44:33;;;;;;;6.87;4.87;;;3.60;99.90;3.40;101278.00;;;;4976417;28;90559;-67
2022/01/19 11:47:17;;;;;;;8.57;5.07;;;3.60;99.90;3.40;101271.00;;;;4997426;27;88872;-68
2022/01/19 11:49:58;;;;;;;5.60;4.57;;;3.70;99.90;3.50;101255.00;;;;4996172;28;87780;-67
2022/01/19 11:52:48;;;;;;;5.70;4.33;;;3.70;99.90;3.50;101239.00;;;;4997274;28;87055;-67
2022/01/19 11:55:25;;;;;;;6.40;4.53;;;3.70;99.90;3.60;101238.00;;;;5008619;27;87858;-67
2022/01/19 11:58:16;;;;;;;9.03;4.27;;;3.70;99.90;3.60;101226.00;;;;5016175;27;87818;-67
2022/01/19 12:00:45;;;;;;;5.43;3.80;;;3.80;99.90;3.70;101215.00;;;;5016801;27;88747;-67
2022/01/19 12:03:35;;;;;;;6.83;4.67;;;3.80;99.90;3.80;101219.00;;;;5003622;27;87927;-67
2022/01/19 12:06:02;;;;;;;8.13;4.70;;;3.90;99.90;3.80;101201.00;;;;4980762;27;89245;-67
2022/01/19 12:08:33;;;;;;;5.23;3.47;;;4.00;99.90;3.80;101198.00;;;;4994973;28;116070;-69
2022/01/19 12:11:22;;;;;;;6.17;3.97;;;4.00;99.90;3.80;101171.00;;;;4996364;27;88025;-67
2022/01/19 12:14:36;;;;;;;3.73;3.40;;;4.00;99.90;3.80;101167.00;;;;5016731;27;87718;-68
2022/01/19 12:17:04;;;;;;;5.63;4.27;;;4.00;99.90;3.90;101157.00;;;;4999889;27;88259;-67
2022/01/19 12:19:40;;;;;;;4.63;3.57;;;4.10;99.90;3.90;101156.00;;;;5015158;27;88579;-69
2022/01/19 12:22:24;;;;;;;3.90;3.37;;;4.10;99.90;4.00;101142.00;;;;5016295;27;87936;-67